Time;durP1;ratioP1;P1;durP2;ratioP2;P2;SDS_P1;SDS_P2;PMS_P1;PMS_P2;Temp;Humidity;BMP_temperature;BMP_pressure;BME280_temperature;BME280_humidity;BME280_pressure;Samples;Min_cycle;Max_cycle;Signal;HPM_P1;HPM_P2
2021/06/23 00:01:10;;;;;;;16.98;14.40;;;;;;;24.24;63.76;99803.63;5087719;28;20021;-22
2021/06/23 00:03:35;;;;;;;16.10;14.43;;;;;;;24.00;64.75;99798.59;5087761;28;20123;-22
2021/06/23 00:06:01;;;;;;;17.38;15.73;;;;;;;24.02;64.89;99808.06;5087529;28;20102;-22
2021/06/23 00:08:26;;;;;;;16.20;14.32;;;;;;;23.99;65.03;99810.63;5069405;28;20028;-22
2021/06/23 00:10:52;;;;;;;18.52;14.40;;;;;;;23.75;65.61;99800.06;5087664;28;20365;-22
2021/06/23 00:13:21;;;;;;;15.55;13.55;;;;;;;24.10;63.83;99802.97;5087597;28;20556;-22
2021/06/23 00:15:47;;;;;;;16.23;14.27;;;;;;;24.34;64.18;99808.00;5069375;28;20036;-22
2021/06/23 00:18:12;;;;;;;16.25;14.60;;;;;;;24.07;64.75;99815.28;5087283;28;20059;-22
2021/06/23 00:20:37;;;;;;;16.23;14.02;;;;;;;23.94;65.34;99819.72;5087225;28;20024;-22
2021/06/23 00:23:03;;;;;;;17.17;14.32;;;;;;;24.17;64.37;99803.28;5069398;28;20031;-22
2021/06/23 00:25:32;;;;;;;15.95;14.18;;;;;;;24.13;64.79;99813.22;5087613;28;20484;-22
2021/06/23 00:27:57;;;;;;;16.20;14.50;;;;;;;24.16;64.41;99813.38;5087341;28;20035;-22
2021/06/23 00:30:23;;;;;;;20.35;14.25;;;;;;;24.23;63.80;99796.56;5087349;28;20385;-22
2021/06/23 00:32:49;;;;;;;17.30;14.85;;;;;;;23.94;64.53;99783.50;5087802;28;20031;-22
2021/06/23 00:35:15;;;;;;;17.50;14.88;;;;;;;23.97;64.73;99802.75;5052453;28;20036;-23
2021/06/23 00:37:40;;;;;;;15.63;14.02;;;;;;;24.12;64.77;99798.00;5087554;28;20119;-22
2021/06/23 00:40:06;;;;;;;16.42;14.18;;;;;;;24.24;64.19;99798.19;5069069;28;20028;-23
2021/06/23 00:42:33;;;;;;;16.73;14.27;;;;;;;24.22;64.16;99800.44;5087220;28;20032;-22
2021/06/23 00:44:58;;;;;;;16.45;13.65;;;;;;;24.35;63.58;99804.13;5087222;28;20028;-23
2021/06/23 00:47:26;;;;;;;18.30;13.65;;;;;;;24.11;63.83;99796.38;5087275;28;20032;-22
2021/06/23 00:49:52;;;;;;;16.30;14.32;;;;;;;24.03;64.56;99787.09;5068870;28;20028;-22
2021/06/23 00:52:17;;;;;;;27.48;18.63;;;;;;;23.86;64.86;99776.91;5087180;28;20032;-22
2021/06/23 00:54:51;;;;;;;28.38;19.58;;;;;;;24.04;63.92;99766.88;5090391;28;20039;-22
2021/06/23 00:57:16;;;;;;;41.63;24.42;;;;;;;24.02;63.67;99785.47;5073273;28;20459;-22
2021/06/23 00:59:42;;;;;;;36.67;23.30;;;;;;;23.96;64.10;99775.81;5073357;28;20062;-22
2021/06/23 01:02:08;;;;;;;33.75;21.20;;;;;;;24.03;64.00;99782.44;5056371;28;20028;-22
2021/06/23 01:04:33;;;;;;;24.02;17.98;;;;;;;23.83;64.66;99793.91;5073137;28;20457;-22
2021/06/23 01:06:59;;;;;;;22.10;17.15;;;;;;;23.96;64.49;99800.34;5073021;28;20054;-22
2021/06/23 01:09:24;;;;;;;22.38;16.33;;;;;;;23.73;64.70;99811.28;5091245;28;20020;-22
2021/06/23 01:12:14;;;;;;;21.17;17.02;;;;;;;23.99;63.80;99808.69;5072796;28;20036;-22
2021/06/23 01:14:41;;;;;;;26.63;16.70;;;;;;;23.88;64.72;99815.53;5091070;28;20059;-23
2021/06/23 01:17:07;;;;;;;21.52;17.20;;;;;;;23.97;64.34;99799.25;5090835;28;20047;-22
2021/06/23 01:19:35;;;;;;;24.20;18.35;;;;;;;24.22;63.42;99817.56;5090801;28;20052;-22
2021/06/23 01:22:00;;;;;;;26.30;18.85;;;;;;;24.17;64.40;99819.63;5073010;28;20028;-23
2021/06/23 01:24:26;;;;;;;26.40;18.40;;;;;;;24.20;63.57;99816.28;5090679;28;20032;-23
2021/06/23 01:26:51;;;;;;;23.38;18.00;;;;;;;23.98;64.06;99817.97;5090854;28;20020;-22
2021/06/23 01:29:17;;;;;;;20.90;17.65;;;;;;;23.81;65.03;99823.34;5090808;28;20044;-22
2021/06/23 01:31:42;;;;;;;22.23;17.30;;;;;;;23.78;65.02;99815.78;5090701;28;20431;-22
2021/06/23 01:34:08;;;;;;;22.52;17.23;;;;;;;23.66;65.35;99816.38;5090313;28;20028;-22
2021/06/23 01:36:33;;;;;;;22.02;16.90;;;;;;;23.89;64.19;99819.88;5055773;28;20028;-22
2021/06/23 01:38:59;;;;;;;18.98;15.23;;;;;;;23.82;64.97;99814.06;5090741;28;20089;-22
2021/06/23 01:41:25;;;;;;;17.05;15.25;;;;;;;23.70;64.02;99817.34;5090510;28;20094;-22
2021/06/23 01:43:50;;;;;;;18.73;15.25;;;;;;;23.53;65.40;99826.22;5072261;28;20032;-22
2021/06/23 01:46:16;;;;;;;18.85;15.60;;;;;;;23.74;64.54;99829.22;5090362;28;20031;-22
2021/06/23 01:48:41;;;;;;;17.75;15.90;;;;;;;23.79;64.15;99823.66;5090502;28;20076;-22
2021/06/23 01:51:07;;;;;;;18.60;16.00;;;;;;;23.77;64.18;99816.94;5090406;28;20128;-22
2021/06/23 01:53:34;;;;;;;17.35;15.55;;;;;;;23.47;64.91;99819.28;5090065;28;20089;-22
2021/06/23 01:55:59;;;;;;;18.48;15.80;;;;;;;23.46;64.86;99814.97;5090233;28;20028;-22
2021/06/23 01:58:25;;;;;;;18.75;15.48;;;;;;;23.18;65.17;99828.69;5089726;28;20498;-22
2021/06/23 02:01:05;;;;;;;18.40;16.48;;;;;;;23.11;66.38;99817.47;5055559;28;20028;-22
2021/06/23 02:03:49;;;;;;;17.25;15.45;;;;;;;23.06;66.65;99820.28;5073125;28;20991;-22
2021/06/23 02:06:33;;;;;;;20.05;16.10;;;;;;;23.38;65.96;99818.44;5088460;28;20111;-22
2021/06/23 02:09:22;;;;;;;17.52;15.82;;;;;;;23.01;66.93;99801.34;5089852;28;20071;-22
2021/06/23 02:11:48;;;;;;;18.73;16.10;;;;;;;23.11;66.61;99813.91;5089844;28;20035;-22
2021/06/23 02:14:28;;;;;;;20.02;16.33;;;;;;;23.15;65.65;99813.00;5055020;28;20032;-23
2021/06/23 02:16:55;;;;;;;19.30;16.88;;;;;;;23.16;65.56;99801.00;5089667;28;20028;-22
2021/06/23 02:19:20;;;;;;;18.42;16.48;;;;;;;22.93;66.77;99810.25;5089722;28;20055;-22
2021/06/23 02:21:46;;;;;;;19.83;16.83;;;;;;;22.58;67.90;99815.38;5071812;28;20028;-22
2021/06/23 02:24:11;;;;;;;23.27;16.88;;;;;;;22.44;68.39;99802.59;5054602;28;20032;-22
2021/06/23 02:26:37;;;;;;;24.20;17.17;;;;;;;22.64;67.73;99797.84;5071361;28;20028;-23
2021/06/23 02:29:03;;;;;;;18.70;15.13;;;;;;;22.18;68.30;99802.31;5054974;28;20039;-22
2021/06/23 02:31:29;;;;;;;22.08;15.65;;;;;;;;;;5089829;28;20031;-22
2021/06/23 02:33:55;;;;;;;19.27;16.00;;;;;;;22.59;68.43;99812.34;5089507;28;20024;-22
2021/06/23 02:36:20;;;;;;;24.20;15.40;;;;;;;22.40;68.98;99826.06;5071311;28;20028;-22
2021/06/23 02:38:46;;;;;;;20.15;15.40;;;;;;;22.48;68.66;99815.59;5089665;28;20978;-22
2021/06/23 02:41:11;;;;;;;21.17;16.27;;;;;;;22.53;68.81;99820.91;5071505;28;20095;-23
2021/06/23 02:43:37;;;;;;;21.35;17.05;;;;;;;22.70;68.42;99817.53;5071005;28;20036;-22
2021/06/23 02:46:03;;;;;;;21.60;16.63;;;;;;;22.92;67.51;99820.31;5089456;28;20031;-22
2021/06/23 02:48:28;;;;;;;21.63;17.55;;;;;;;22.86;66.20;99811.47;5089141;28;20039;-22
2021/06/23 02:50:58;;;;;;;23.67;18.88;;;;;;;22.54;67.56;99814.38;5089161;28;20431;-22
2021/06/23 02:53:25;;;;;;;25.42;19.52;;;;;;;22.44;68.02;99824.34;5071159;28;20036;-22
2021/06/23 02:55:50;;;;;;;37.72;24.50;;;;;;;22.56;68.28;99828.47;5071634;28;20028;-22
2021/06/23 02:58:16;;;;;;;36.50;23.83;;;;;;;22.60;68.42;99834.91;5071060;28;20042;-22
2021/06/23 03:00:41;;;;;;;37.85;25.50;;;;;;;22.50;68.47;99844.06;5054226;28;20477;-22
2021/06/23 03:03:07;;;;;;;30.38;22.85;;;;;;;22.50;68.63;99827.75;5070860;28;20090;-22
2021/06/23 03:05:32;;;;;;;34.55;30.23;;;;;;;22.58;67.19;99821.63;5089145;28;20056;-22
2021/06/23 03:07:58;;;;;;;30.92;25.17;;;;;;;22.62;67.92;99817.19;5088916;28;20488;-22
2021/06/23 03:10:23;;;;;;;31.63;27.83;;;;;;;22.37;69.20;99810.38;5088585;28;20389;-22
2021/06/23 03:12:49;;;;;;;41.70;37.90;;;;;;;22.50;67.77;99818.81;5089034;28;20028;-22
2021/06/23 03:15:14;;;;;;;30.73;27.50;;;;;;;22.53;67.81;99829.84;5088823;28;20039;-22
2021/06/23 03:17:40;;;;;;;26.83;23.02;;;;;;;22.42;67.58;99840.16;5088294;28;20065;-22
2021/06/23 03:20:07;;;;;;;23.63;21.13;;;;;;;22.62;67.51;99844.34;5088546;28;20400;-22
2021/06/23 03:22:33;;;;;;;25.65;21.42;;;;;;;22.70;68.14;99855.59;5088556;28;20024;-22
2021/06/23 03:24:58;;;;;;;21.80;19.42;;;;;;;22.66;68.03;99852.72;5088643;28;20035;-22
2021/06/23 03:27:23;;;;;;;21.15;18.90;;;;;;;22.79;67.70;99860.03;5088440;28;20028;-22
2021/06/23 03:29:49;;;;;;;29.98;19.80;;;;;;;22.29;68.76;99853.72;5088492;28;20035;-22
2021/06/23 03:32:14;;;;;;;29.60;20.15;;;;;;;22.36;68.84;99846.78;5088192;28;20036;-22
2021/06/23 03:34:40;;;;;;;21.38;17.70;;;;;;;22.48;68.22;99840.06;5088706;28;20036;-22
2021/06/23 03:37:06;;;;;;;22.48;18.42;;;;;;;22.98;66.88;99859.88;5088261;28;20024;-22
2021/06/23 03:39:31;;;;;;;23.67;17.38;;;;;;;22.80;66.71;99850.78;5088165;28;20474;-22
2021/06/23 03:41:57;;;;;;;19.08;17.05;;;;;;;23.01;66.50;99866.63;5088519;28;20090;-22
2021/06/23 03:44:22;;;;;;;19.60;15.90;;;;;;;22.85;67.56;99863.44;5088141;28;20031;-22
2021/06/23 03:46:48;;;;;;;19.98;16.92;;;;;;;23.05;66.73;99859.50;5087900;28;20060;-22
2021/06/23 03:49:13;;;;;;;19.48;17.48;;;;;;;23.06;66.75;99870.03;5088224;28;20028;-23
2021/06/23 03:51:39;;;;;;;20.92;18.02;;;;;;;23.30;65.94;99868.97;5088029;28;20032;-22
2021/06/23 03:54:04;;;;;;;23.05;17.98;;;;;;;23.35;66.00;99866.09;5087955;28;20824;-23
2021/06/23 03:56:30;;;;;;;22.25;17.23;;;;;;;23.32;66.14;99865.94;5087937;28;20032;-22
2021/06/23 03:58:56;;;;;;;24.90;19.65;;;;;;;23.53;65.26;99855.34;5088131;28;20032;-22
2021/06/23 04:01:21;;;;;;;27.08;18.95;;;;;;;23.60;65.46;99878.31;5087910;28;20036;-22
2021/06/23 04:03:47;;;;;;;36.30;23.17;;;;;;;23.60;65.58;99856.53;5087706;28;20497;-22
2021/06/23 04:06:12;;;;;;;28.13;19.52;;;;;;;23.76;64.61;99876.00;5087186;28;20035;-22
2021/06/23 04:08:38;;;;;;;19.30;17.30;;;;;;;23.47;65.52;99884.59;5087720;28;20032;-22
2021/06/23 04:11:03;;;;;;;20.77;18.52;;;;;;;23.41;65.40;99867.59;5087720;28;20058;-22
2021/06/23 04:13:29;;;;;;;19.92;17.92;;;;;;;23.66;65.08;99879.00;5087629;28;20028;-22
2021/06/23 04:15:54;;;;;;;21.83;17.95;;;;;;;23.53;64.96;99844.47;5087434;28;20032;-22
2021/06/23 04:18:20;;;;;;;23.83;17.80;;;;;;;23.30;66.23;99862.72;5086830;28;20043;-22
2021/06/23 04:20:45;;;;;;;20.00;17.60;;;;;;;23.62;65.75;99867.91;5087727;28;20081;-22
2021/06/23 04:23:10;;;;;;;22.95;17.88;;;;;;;23.85;64.99;99868.69;5087581;28;20028;-22
2021/06/23 04:25:36;;;;;;;20.70;18.60;;;;;;;24.09;64.60;99872.16;5087285;28;20024;-22
2021/06/23 04:28:01;;;;;;;21.17;18.98;;;;;;;23.82;64.76;99869.34;5086801;28;20093;-22
2021/06/23 04:30:27;;;;;;;21.02;18.80;;;;;;;23.44;66.84;99883.31;5087561;28;20032;-22
2021/06/23 04:32:52;;;;;;;21.42;18.13;;;;;;;23.61;66.10;99885.34;5087703;28;20036;-22
2021/06/23 04:35:18;;;;;;;21.80;19.60;;;;;;;23.72;65.35;99869.56;5087782;28;20039;-22
2021/06/23 04:37:43;;;;;;;22.60;20.23;;;;;;;23.97;65.36;99881.75;5087381;28;20403;-22
2021/06/23 04:40:11;;;;;;;22.88;20.30;;;;;;;23.89;66.02;99873.53;5086942;28;20028;-22
2021/06/23 04:42:39;;;;;;;24.40;21.75;;;;;;;24.21;65.06;99880.53;5087185;28;20024;-22
2021/06/23 04:45:05;;;;;;;;;;;;;;;23.99;66.54;99884.16;5087689;28;20036;-22
2021/06/23 04:47:30;;;;;;;25.48;19.80;;;;;;;24.16;65.60;99875.25;5087014;28;19981;-22
2021/06/23 04:49:56;;;;;;;26.00;20.25;;;;;;;23.89;66.84;99881.72;5087426;28;20457;-22
2021/06/23 04:52:21;;;;;;;21.45;18.58;;;;;;;24.06;66.10;99868.16;5068799;28;20028;-22
2021/06/23 04:54:47;;;;;;;21.52;19.25;;;;;;;24.33;65.72;99883.47;5087028;28;20090;-22
2021/06/23 04:57:13;;;;;;;20.70;18.60;;;;;;;24.42;64.80;99878.88;5087177;28;20035;-22
2021/06/23 04:59:38;;;;;;;21.42;17.42;;;;;;;24.04;66.33;99889.47;5087082;28;20028;-22
2021/06/23 05:02:04;;;;;;;26.10;18.58;;;;;;;23.94;67.26;99871.47;5086607;28;20058;-22
2021/06/23 05:04:29;;;;;;;23.45;18.33;;;;;;;24.01;66.24;99850.03;5087013;28;20032;-22
2021/06/23 05:06:55;;;;;;;20.63;17.33;;;;;;;23.89;67.30;99876.25;5087094;28;20024;-22
2021/06/23 05:09:20;;;;;;;23.02;17.48;;;;;;;24.26;66.78;99888.59;5086911;28;20028;-22
2021/06/23 05:11:46;;;;;;;21.17;18.13;;;;;;;24.61;65.47;99878.63;5087153;28;20100;-22
2021/06/23 05:14:11;;;;;;;22.90;18.63;;;;;;;24.70;65.61;99891.47;5068852;28;20419;-22
2021/06/23 05:16:38;;;;;;;21.98;17.38;;;;;;;24.35;66.98;99902.25;5086958;28;20033;-22
2021/06/23 05:19:03;;;;;;;22.90;17.38;;;;;;;24.38;66.65;99883.34;5068906;28;20087;-22
2021/06/23 05:21:34;;;;;;;21.17;16.35;;;;;;;24.74;65.28;99893.25;5087196;28;20032;-22
2021/06/23 05:24:01;;;;;;;24.88;16.52;;;;;;;24.62;65.39;99880.25;5086738;28;20024;-23
2021/06/23 05:26:26;;;;;;;22.58;16.52;;;;;;;25.11;64.29;99903.88;5086761;28;20035;-22
2021/06/23 05:28:52;;;;;;;21.70;16.67;;;;;;;25.36;63.75;99897.66;5087056;28;20764;-22
2021/06/23 05:31:17;;;;;;;23.02;16.58;;;;;;;25.58;62.91;99883.03;5087393;28;20032;-22
2021/06/23 05:33:43;;;;;;;23.70;16.08;;;;;;;25.77;63.04;99901.78;5086603;28;20047;-22
2021/06/23 05:36:08;;;;;;;22.35;16.63;;;;;;;25.88;61.96;99891.31;5086460;28;20021;-22
2021/06/23 05:38:34;;;;;;;21.55;15.75;;;;;;;25.62;63.01;99900.38;5086751;28;20047;-23
2021/06/23 05:40:59;;;;;;;20.02;15.07;;;;;;;25.83;62.36;99916.88;5089752;28;20035;-22
2021/06/23 05:43:25;;;;;;;23.60;15.73;;;;;;;26.13;61.84;99916.16;5090539;28;20381;-22
2021/06/23 05:45:50;;;;;;;19.80;14.20;;;;;;;26.34;60.13;99922.53;5090366;28;20059;-22
2021/06/23 05:48:15;;;;;;;19.17;13.35;;;;;;;26.60;58.99;99910.69;5090446;28;20403;-22
2021/06/23 05:50:41;;;;;;;21.55;12.77;;;;;;;26.79;58.04;99923.94;5090361;28;20059;-23
2021/06/23 05:53:07;;;;;;;25.05;12.90;;;;;;;26.74;58.25;99911.22;5090125;28;20501;-22
2021/06/23 05:55:32;;;;;;;22.25;13.88;;;;;;;26.96;58.04;99923.03;5090408;28;20064;-22
2021/06/23 05:57:58;;;;;;;19.30;12.10;;;;;;;26.83;57.44;99920.19;5072774;28;20032;-22
2021/06/23 06:00:24;;;;;;;19.90;12.05;;;;;;;27.01;56.80;99922.81;5089997;28;20519;-22
2021/06/23 06:02:50;;;;;;;19.58;11.75;;;;;;;26.85;57.74;99928.88;5072395;28;20028;-22
2021/06/23 06:05:15;;;;;;;21.35;12.50;;;;;;;26.89;57.53;99915.34;5090191;28;20812;-22
2021/06/23 06:07:41;;;;;;;22.98;11.20;;;;;;;26.77;57.68;99932.47;5089793;28;20032;-22
2021/06/23 06:10:07;;;;;;;23.08;12.38;;;;;;;26.76;58.42;99930.06;5089690;28;20557;-22
2021/06/23 06:12:33;;;;;;;19.55;11.32;;;;;;;26.76;57.67;99936.31;5089913;28;20028;-22
2021/06/23 06:14:58;;;;;;;18.33;12.43;;;;;;;27.01;57.25;99936.50;5089803;28;20031;-22
2021/06/23 06:17:24;;;;;;;22.02;11.85;;;;;;;27.12;58.04;99934.19;5089841;28;20036;-22
2021/06/23 06:19:50;;;;;;;19.38;11.18;;;;;;;26.89;57.64;99933.69;5089877;28;20412;-22
2021/06/23 06:22:15;;;;;;;27.38;11.63;;;;;;;27.28;57.18;99939.88;5089468;28;20593;-22
2021/06/23 06:24:40;;;;;;;23.15;12.10;;;;;;;26.96;56.98;99925.75;5071782;28;20035;-22
2021/06/23 06:27:06;;;;;;;21.90;11.70;;;;;;;27.05;57.03;99929.22;5089430;28;20025;-23
2021/06/23 06:29:32;;;;;;;18.85;11.77;;;;;;;27.05;56.98;99929.22;5089379;28;20032;-22
2021/06/23 06:31:57;;;;;;;19.55;12.25;;;;;;;27.28;56.30;99946.16;5089655;28;20495;-23
2021/06/23 06:34:23;;;;;;;18.17;12.50;;;;;;;27.53;56.53;99947.06;5089345;28;20039;-22
2021/06/23 06:36:48;;;;;;;21.05;11.82;;;;;;;27.99;55.37;99942.47;5089510;28;20517;-22
2021/06/23 06:39:14;;;;;;;19.38;12.38;;;;;;;28.18;54.10;99949.38;5089480;28;20032;-22
2021/06/23 06:41:39;;;;;;;18.55;12.43;;;;;;;28.43;53.58;99948.22;5089645;28;20032;-23
2021/06/23 06:44:05;;;;;;;15.20;12.30;;;;;;;28.61;53.19;99931.59;5088834;28;20107;-23
2021/06/23 06:46:30;;;;;;;18.65;12.70;;;;;;;28.74;52.01;99937.88;5089246;28;20027;-22
2021/06/23 06:48:56;;;;;;;17.73;12.52;;;;;;;28.78;53.47;99923.09;5089109;28;20499;-23
2021/06/23 06:51:21;;;;;;;16.30;11.45;;;;;;;28.76;52.23;99925.38;5088342;28;20036;-22
2021/06/23 06:53:46;;;;;;;20.25;11.95;;;;;;;28.42;53.45;99932.94;5089143;28;20032;-22
2021/06/23 06:56:12;;;;;;;20.40;12.13;;;;;;;28.74;54.21;99943.34;5088969;28;20028;-22
2021/06/23 06:58:37;;;;;;;23.00;12.43;;;;;;;28.95;52.65;99935.78;5088783;28;20491;-22
2021/06/23 07:01:03;;;;;;;20.15;11.43;;;;;;;29.11;53.05;99933.13;5089121;28;20028;-22
2021/06/23 07:03:29;;;;;;;20.35;13.35;;;;;;;29.14;52.76;99932.44;5089001;28;20480;-22
2021/06/23 07:05:55;;;;;;;21.98;11.40;;;;;;;29.25;49.95;99925.31;5088589;28;20028;-23
2021/06/23 07:08:20;;;;;;;23.10;13.38;;;;;;;29.54;53.62;99931.63;5088663;28;20035;-22
2021/06/23 07:10:46;;;;;;;18.95;11.57;;;;;;;29.67;51.40;99940.63;5089123;28;20036;-22
2021/06/23 07:13:11;;;;;;;20.27;11.80;;;;;;;29.47;51.61;99919.66;5088550;28;20036;-22
2021/06/23 07:15:37;;;;;;;20.33;9.68;;;;;;;29.68;47.29;99935.91;5088966;28;20150;-22
2021/06/23 07:18:03;;;;;;;18.15;10.82;;;;;;;29.74;47.69;99945.53;5070320;28;20083;-22
2021/06/23 07:20:28;;;;;;;23.23;10.63;;;;;;;29.55;48.52;99938.72;5088505;28;20052;-22
2021/06/23 07:22:53;;;;;;;21.85;10.82;;;;;;;29.57;48.90;99939.16;5088745;28;20031;-22
2021/06/23 07:25:19;;;;;;;22.55;10.73;;;;;;;29.59;49.60;99939.63;5088545;28;20483;-22
2021/06/23 07:27:45;;;;;;;21.95;10.98;;;;;;;29.46;48.11;99935.31;5088299;28;20036;-22
2021/06/23 07:30:11;;;;;;;23.40;10.63;;;;;;;29.62;47.85;99938.91;5088515;28;20387;-22
2021/06/23 07:32:49;;;;;;;22.33;10.30;;;;;;;29.86;49.25;99926.22;5088406;28;20028;-22
2021/06/23 07:37:59;;;;;;;21.77;10.63;;;;;;;30.06;50.21;99929.91;5088641;28;20125;-22
2021/06/23 07:43:29;;;;;;;20.42;10.30;;;;;;;30.15;48.25;99935.22;5025479;28;20076;-22
2021/06/23 07:45:59;;;;;;;25.95;10.10;;;;;;;30.27;49.25;99937.09;5025597;28;20112;-22
2021/06/23 07:48:29;;;;;;;21.73;11.20;;;;;;;30.09;49.26;99917.38;5055988;28;20039;-22
2021/06/23 07:51:10;;;;;;;23.38;10.45;;;;;;;30.53;49.23;99914.56;5088155;28;20129;-22
2021/06/23 08:09:40;;;;;;;25.33;10.30;;;;;;;30.90;45.40;99939.03;5087845;28;20036;-22
2021/06/23 08:12:16;;;;;;;22.05;10.00;;;;;;;30.93;45.80;99932.78;5087627;28;20031;-22
2021/06/23 08:14:41;;;;;;;31.92;11.35;;;;;;;30.86;46.00;99935.34;5087646;28;20036;-22
2021/06/23 08:17:07;;;;;;;25.35;10.10;;;;;;;31.04;45.92;99925.56;5087344;28;20025;-22
2021/06/23 08:19:32;;;;;;;26.63;9.80;;;;;;;30.80;46.38;99924.59;5087431;28;20050;-22
2021/06/23 08:21:58;;;;;;;28.33;10.50;;;;;;;31.41;45.57;99925.13;5087632;28;20097;-22
2021/06/23 08:24:23;;;;;;;25.08;9.13;;;;;;;31.06;45.86;99926.00;5087296;28;20032;-22
2021/06/23 08:26:49;;;;;;;25.20;9.68;;;;;;;31.11;44.88;99927.66;5087611;28;20499;-22
2021/06/23 08:29:14;;;;;;;27.58;10.18;;;;;;;31.08;45.04;99900.81;5087686;28;20024;-22
2021/06/23 08:31:40;;;;;;;32.35;10.73;;;;;;;31.36;44.61;99925.41;5087758;28;20036;-22
2021/06/23 08:34:05;;;;;;;30.52;10.20;;;;;;;31.72;44.52;99934.41;5087257;28;20465;-22
2021/06/23 08:36:31;;;;;;;30.13;9.77;;;;;;;31.84;43.59;99932.28;5087511;28;20028;-22
2021/06/23 08:38:56;;;;;;;24.45;9.90;;;;;;;32.22;43.64;99921.53;5087445;28;20505;-22
2021/06/23 08:41:29;;;;;;;26.33;9.43;;;;;;;32.37;43.23;99923.34;5087686;28;20029;-22
2021/06/23 08:43:58;;;;;;;24.98;9.30;;;;;;;32.73;41.85;99923.13;5087038;28;20032;-22
2021/06/23 08:46:24;;;;;;;31.13;10.07;;;;;;;33.02;41.64;99924.34;5086857;28;20032;-22
2021/06/23 08:48:50;;;;;;;24.90;8.73;;;;;;;32.68;42.67;99926.22;5087059;28;20036;-22
2021/06/23 08:51:15;;;;;;;29.95;9.38;;;;;;;32.79;42.23;99919.66;5068987;28;20028;-22
2021/06/23 08:53:41;;;;;;;34.25;10.52;;;;;;;33.27;41.11;99916.38;5087386;28;20120;-22
2021/06/23 08:56:07;;;;;;;25.30;9.73;;;;;;;33.37;42.71;99917.69;5087213;28;20025;-22
2021/06/23 08:58:33;;;;;;;28.27;10.02;;;;;;;33.49;40.72;99917.44;5086918;28;20032;-22
2021/06/23 09:00:58;;;;;;;22.48;8.55;;;;;;;33.31;40.19;99917.22;5087202;28;20024;-22
2021/06/23 09:03:24;;;;;;;26.40;7.90;;;;;;;33.38;39.25;99916.50;5087252;28;20138;-22
2021/06/23 09:05:56;;;;;;;23.63;7.43;;;;;;;33.90;39.45;99913.88;5086990;28;20392;-22
2021/06/23 09:08:32;;;;;;;33.13;9.18;;;;;;;34.39;38.27;99919.09;5087210;28;20072;-22
2021/06/23 09:10:59;;;;;;;26.10;8.25;;;;;;;34.51;36.24;99925.47;5086748;28;20103;-22
2021/06/23 09:13:24;;;;;;;28.85;7.78;;;;;;;34.70;37.12;99925.25;5086922;28;20039;-22
2021/06/23 09:15:57;;;;;;;23.35;7.28;;;;;;;34.93;34.66;99919.44;5089713;28;20037;-23
2021/06/23 09:18:25;;;;;;;27.05;7.70;;;;;;;35.09;35.26;99908.03;5090500;28;20052;-22
2021/06/23 09:21:15;;;;;;;24.10;8.38;;;;;;;34.65;36.81;99908.22;5090826;28;20024;-22
2021/06/23 09:23:59;;;;;;;25.60;8.15;;;;;;;34.47;36.02;99891.44;5077535;28;20044;-22
2021/06/23 09:26:33;;;;;;;21.95;7.88;;;;;;;34.97;36.71;99905.63;5090449;28;20078;-22
2021/06/23 09:29:15;;;;;;;28.98;8.07;;;;;;;35.32;34.34;99904.19;5090927;28;20028;-22
2021/06/23 09:31:59;;;;;;;26.98;7.60;;;;;;;35.54;35.69;99903.06;5090606;28;20051;-22
2021/06/23 09:34:28;;;;;;;20.92;7.47;;;;;;;35.29;34.05;99907.72;5090263;28;20032;-21
2021/06/23 09:36:53;;;;;;;27.05;7.97;;;;;;;34.89;35.77;99904.00;5090478;28;20036;-22
2021/06/23 09:39:29;;;;;;;21.30;7.07;;;;;;;34.37;35.32;99904.84;5090568;28;20573;-22
2021/06/23 09:41:55;;;;;;;22.50;7.97;;;;;;;34.13;36.43;99884.09;5090797;28;20032;-22
2021/06/23 09:44:24;;;;;;;24.83;7.30;;;;;;;34.89;34.95;99876.28;5090222;28;20039;-22
2021/06/23 09:46:50;;;;;;;24.08;8.75;;;;;;;35.30;34.06;99887.16;5090409;28;20039;-22
2021/06/23 09:49:17;;;;;;;24.70;7.17;;;;;;;35.00;32.86;99885.44;5090550;28;20399;-21
2021/06/23 09:51:57;;;;;;;23.13;6.47;;;;;;;35.19;32.81;99865.75;5090836;28;20155;-22
2021/06/23 09:54:24;;;;;;;23.42;6.97;;;;;;;35.30;33.64;99863.00;5090342;28;20549;-22
2021/06/23 09:56:50;;;;;;;23.83;7.30;;;;;;;34.88;33.67;99858.06;5072052;28;20059;-21
2021/06/23 09:59:34;;;;;;;20.45;6.65;;;;;;;34.99;34.18;99850.59;5090338;28;20032;-22
2021/06/23 10:02:00;;;;;;;30.48;7.63;;;;;;;34.98;33.72;99868.41;5072348;28;20399;-22
2021/06/23 10:04:36;;;;;;;23.65;6.72;;;;;;;34.95;35.27;99844.25;5089929;28;20051;-22
2021/06/23 10:07:02;;;;;;;22.13;6.40;;;;;;;34.91;34.04;99858.09;5089683;28;20396;-22
2021/06/23 10:09:31;;;;;;;22.90;7.40;;;;;;;34.64;36.85;99856.75;5090234;28;20801;-22
2021/06/23 10:12:01;;;;;;;26.20;8.50;;;;;;;34.58;38.65;99864.63;5089859;28;20782;-22
2021/06/23 10:14:29;;;;;;;23.83;7.22;;;;;;;34.64;36.57;99851.22;5089873;28;20060;-22
2021/06/23 10:16:54;;;;;;;27.77;7.43;;;;;;;34.71;35.47;99852.06;5089995;28;20132;-22
2021/06/23 10:19:20;;;;;;;24.20;7.00;;;;;;;34.89;35.05;99867.97;5089607;28;20079;-21
2021/06/23 10:21:46;;;;;;;25.83;7.82;;;;;;;34.56;35.47;99861.44;5089529;28;20039;-21
2021/06/23 10:24:12;;;;;;;22.02;7.55;;;;;;;34.58;36.99;99848.81;5089638;28;20572;-21
2021/06/23 10:26:48;;;;;;;24.17;7.93;;;;;;;35.04;35.86;99847.44;5088250;28;20024;-21
2021/06/23 10:29:34;;;;;;;23.23;7.53;;;;;;;35.86;35.78;99863.53;5089837;28;20175;-22
2021/06/23 10:32:00;;;;;;;18.60;7.47;;;;;;;36.15;34.54;99852.44;5089367;28;20032;-22
2021/06/23 10:34:26;;;;;;;25.37;7.17;;;;;;;35.95;33.55;99849.25;5089568;28;20266;-22
2021/06/23 10:36:52;;;;;;;20.63;7.10;;;;;;;36.11;33.35;99848.84;5089781;28;20039;-21
2021/06/23 10:39:19;;;;;;;23.98;7.57;;;;;;;36.08;33.60;99852.41;5089606;28;20042;-22
2021/06/23 10:41:46;;;;;;;22.02;7.63;;;;;;;36.37;34.20;99851.22;5089534;28;20078;-22
2021/06/23 10:44:18;;;;;;;18.02;6.35;;;;;;;36.36;32.64;99835.72;5071127;28;20046;-21
2021/06/23 10:46:45;;;;;;;28.05;6.30;;;;;;;36.32;31.40;99823.84;5089178;28;20078;-22
2021/06/23 10:49:15;;;;;;;26.48;6.97;;;;;;;36.53;32.02;99844.41;5089560;28;20115;-21
2021/06/23 10:51:40;;;;;;;25.98;6.38;;;;;;;36.47;31.67;99840.47;5089431;28;20039;-22
2021/06/23 10:54:27;;;;;;;30.70;7.25;;;;;;;36.84;30.73;99853.06;5088883;28;20036;-22
2021/06/23 10:56:53;;;;;;;26.98;6.90;;;;;;;37.29;29.61;99844.91;5089286;28;20031;-22
2021/06/23 10:59:34;;;;;;;20.00;6.10;;;;;;;37.39;29.93;99847.66;5089283;28;20032;-22
2021/06/23 11:02:10;;;;;;;27.98;6.43;;;;;;;37.70;27.53;99852.63;5088869;28;20028;-22
2021/06/23 11:05:09;;;;;;;25.83;5.57;;;;;;;37.59;26.08;99847.91;5088928;28;20110;-22
2021/06/23 11:07:37;;;;;;;28.23;6.45;;;;;;;37.69;27.20;99851.84;5073104;28;20044;-22
2021/06/23 11:10:12;;;;;;;25.98;5.93;;;;;;;37.36;26.82;99856.78;5088536;28;20054;-22
2021/06/23 11:12:47;;;;;;;28.23;6.82;;;;;;;37.24;27.67;99848.16;5088998;28;20023;-21
2021/06/23 11:15:26;;;;;;;23.33;6.13;;;;;;;37.79;27.34;99841.81;5088528;28;20024;-21
2021/06/23 11:17:52;;;;;;;28.23;7.00;;;;;;;37.93;25.34;99836.13;5070491;28;20036;-22
2021/06/23 11:20:21;;;;;;;20.80;5.35;;;;;;;38.64;25.34;99842.22;5088454;28;20032;-22
2021/06/23 11:22:53;;;;;;;26.10;6.78;;;;;;;37.99;24.60;99842.84;5088775;28;20040;-21
2021/06/23 11:25:19;;;;;;;28.45;6.25;;;;;;;37.18;25.42;99845.78;5088568;28;20026;-21
2021/06/23 11:27:45;;;;;;;37.35;6.70;;;;;;;37.98;25.68;99846.03;5088302;28;20036;-21
2021/06/23 11:30:20;;;;;;;21.55;7.05;;;;;;;37.73;26.47;99841.47;5070111;28;20515;-22
2021/06/23 11:32:46;;;;;;;26.10;6.28;;;;;;;37.37;26.58;99836.16;5088125;28;20099;-21
2021/06/23 11:35:12;;;;;;;23.95;5.70;;;;;;;37.37;25.80;99838.13;5088527;28;20032;-21
2021/06/23 11:37:38;;;;;;;31.40;9.40;;;;;;;37.42;27.39;99839.69;5087945;28;20032;-21
2021/06/23 11:40:12;;;;;;;40.15;12.10;;;;;;;37.31;26.30;99845.31;5088015;28;20043;-21
2021/06/23 11:42:37;;;;;;;30.77;7.68;;;;;;;37.17;28.13;99852.56;5088322;28;20060;-21